sensor_id;sensor_type;location;lat;lon;timestamp;pressure;altitude;pressure_sealevel;temperature;humidity
35307;BME280;21420;52.196;21.416;2023-08-20T00:01:33;100548.13;;;19.66;61.00
35307;BME280;21420;52.196;21.416;2023-08-20T00:04:00;100546.46;;;19.63;61.09
35307;BME280;21420;52.196;21.416;2023-08-20T00:06:27;100544.08;;;19.60;60.99
35307;BME280;21420;52.196;21.416;2023-08-20T00:08:54;100543.84;;;19.61;61.03
35307;BME280;21420;52.196;21.416;2023-08-20T00:11:20;100541.20;;;19.59;61.17
35307;BME280;21420;52.196;21.416;2023-08-20T00:13:47;100541.69;;;19.57;61.27
35307;BME280;21420;52.196;21.416;2023-08-20T00:16:14;100539.14;;;19.53;61.23
35307;BME280;21420;52.196;21.416;2023-08-20T00:18:42;100539.84;;;19.49;61.30
35307;BME280;21420;52.196;21.416;2023-08-20T00:21:08;100538.64;;;19.44;61.18
35307;BME280;21420;52.196;21.416;2023-08-20T00:23:36;100533.08;;;19.40;61.28
35307;BME280;21420;52.196;21.416;2023-08-20T00:26:03;100535.29;;;19.37;61.29
35307;BME280;21420;52.196;21.416;2023-08-20T00:28:31;100536.16;;;19.33;61.23
35307;BME280;21420;52.196;21.416;2023-08-20T00:31:01;100535.58;;;19.29;61.17
35307;BME280;21420;52.196;21.416;2023-08-20T00:33:28;100532.95;;;19.24;61.19
35307;BME280;21420;52.196;21.416;2023-08-20T00:35:55;100530.56;;;19.23;61.33
35307;BME280;21420;52.196;21.416;2023-08-20T00:38:21;100526.04;;;19.20;61.38
35307;BME280;21420;52.196;21.416;2023-08-20T00:40:48;100524.70;;;19.21;61.45
35307;BME280;21420;52.196;21.416;2023-08-20T00:43:15;100526.91;;;19.21;61.48
35307;BME280;21420;52.196;21.416;2023-08-20T00:45:42;100525.57;;;19.21;61.52
35307;BME280;21420;52.196;21.416;2023-08-20T00:48:10;100526.27;;;19.23;61.63
35307;BME280;21420;52.196;21.416;2023-08-20T00:50:39;100527.06;;;19.22;61.67
35307;BME280;21420;52.196;21.416;2023-08-20T00:53:08;100526.83;;;19.20;61.64
35307;BME280;21420;52.196;21.416;2023-08-20T00:55:37;100528.16;;;19.16;61.61
35307;BME280;21420;52.196;21.416;2023-08-20T00:58:05;100529.35;;;19.14;61.80
35307;BME280;21420;52.196;21.416;2023-08-20T01:00:32;100532.67;;;19.15;61.71
35307;BME280;21420;52.196;21.416;2023-08-20T01:02:58;100533.48;;;19.16;61.76
35307;BME280;21420;52.196;21.416;2023-08-20T01:05:26;100532.83;;;19.17;61.91
35307;BME280;21420;52.196;21.416;2023-08-20T01:11:15;100530.13;;;19.10;61.83
35307;BME280;21420;52.196;21.416;2023-08-20T01:13:44;100536.91;;;19.06;61.83
35307;BME280;21420;52.196;21.416;2023-08-20T01:16:12;100535.72;;;19.03;61.88
35307;BME280;21420;52.196;21.416;2023-08-20T01:18:39;100539.29;;;19.02;61.99
35307;BME280;21420;52.196;21.416;2023-08-20T01:24:10;100542.99;;;18.97;62.10
35307;BME280;21420;52.196;21.416;2023-08-20T01:27:00;100542.32;;;18.93;62.14
35307;BME280;21420;52.196;21.416;2023-08-20T01:29:31;100541.29;;;18.90;62.10
35307;BME280;21420;52.196;21.416;2023-08-20T01:31:58;100546.52;;;18.88;62.31
35307;BME280;21420;52.196;21.416;2023-08-20T01:34:25;100545.30;;;18.84;62.18
35307;BME280;21420;52.196;21.416;2023-08-20T01:36:53;100548.89;;;18.78;62.06
35307;BME280;21420;52.196;21.416;2023-08-20T01:39:19;100549.89;;;18.74;62.10
35307;BME280;21420;52.196;21.416;2023-08-20T01:41:46;100550.42;;;18.72;62.13
35307;BME280;21420;52.196;21.416;2023-08-20T01:44:13;100553.98;;;18.70;62.25
35307;BME280;21420;52.196;21.416;2023-08-20T01:46:40;100552.79;;;18.67;62.39
35307;BME280;21420;52.196;21.416;2023-08-20T01:49:07;100553.97;;;18.66;62.42
35307;BME280;21420;52.196;21.416;2023-08-20T01:51:33;100554.67;;;18.64;62.48
35307;BME280;21420;52.196;21.416;2023-08-20T01:54:00;100555.52;;;18.63;62.69
35307;BME280;21420;52.196;21.416;2023-08-20T01:56:27;100555.60;;;18.62;62.55
35307;BME280;21420;52.196;21.416;2023-08-20T01:58:53;100553.14;;;18.62;62.44
35307;BME280;21420;52.196;21.416;2023-08-20T02:01:20;100550.20;;;18.61;62.56
35307;BME280;21420;52.196;21.416;2023-08-20T02:03:46;100546.96;;;18.61;62.46
35307;BME280;21420;52.196;21.416;2023-08-20T02:06:13;100549.95;;;18.59;62.49
35307;BME280;21420;52.196;21.416;2023-08-20T02:08:42;100553.03;;;18.57;62.61
35307;BME280;21420;52.196;21.416;2023-08-20T02:11:08;100551.52;;;18.55;62.57
35307;BME280;21420;52.196;21.416;2023-08-20T02:13:35;100552.29;;;18.52;62.84
35307;BME280;21420;52.196;21.416;2023-08-20T02:19:24;100550.30;;;18.51;62.93
35307;BME280;21420;52.196;21.416;2023-08-20T02:21:52;100545.63;;;18.51;62.91
35307;BME280;21420;52.196;21.416;2023-08-20T02:24:19;100551.16;;;18.50;62.77
35307;BME280;21420;52.196;21.416;2023-08-20T02:26:46;100550.67;;;18.47;62.87
35307;BME280;21420;52.196;21.416;2023-08-20T02:29:12;100551.92;;;18.46;62.92
35307;BME280;21420;52.196;21.416;2023-08-20T02:31:39;100555.09;;;18.45;62.78
35307;BME280;21420;52.196;21.416;2023-08-20T02:34:05;100555.23;;;18.42;62.69
35307;BME280;21420;52.196;21.416;2023-08-20T02:36:32;100553.45;;;18.36;62.80
35307;BME280;21420;52.196;21.416;2023-08-20T02:38:59;100549.84;;;18.31;62.81
35307;BME280;21420;52.196;21.416;2023-08-20T02:41:25;100546.58;;;18.28;62.97
35307;BME280;21420;52.196;21.416;2023-08-20T02:43:52;100545.53;;;18.26;63.13
35307;BME280;21420;52.196;21.416;2023-08-20T02:46:19;100542.98;;;18.24;63.10
35307;BME280;21420;52.196;21.416;2023-08-20T02:48:46;100541.70;;;18.23;63.11
35307;BME280;21420;52.196;21.416;2023-08-20T02:51:12;100543.59;;;18.22;63.09
35307;BME280;21420;52.196;21.416;2023-08-20T02:53:39;100544.45;;;18.20;63.10
35307;BME280;21420;52.196;21.416;2023-08-20T02:56:06;100542.27;;;18.16;63.06
35307;BME280;21420;52.196;21.416;2023-08-20T02:58:32;100540.40;;;18.09;63.02
35307;BME280;21420;52.196;21.416;2023-08-20T03:00:59;100536.20;;;18.07;63.11
35307;BME280;21420;52.196;21.416;2023-08-20T03:03:26;100539.49;;;18.05;63.34
35307;BME280;21420;52.196;21.416;2023-08-20T03:05:53;100538.20;;;18.01;63.40
35307;BME280;21420;52.196;21.416;2023-08-20T03:08:20;100538.83;;;17.99;63.27
35307;BME280;21420;52.196;21.416;2023-08-20T03:10:47;100540.45;;;17.97;63.30
35307;BME280;21420;52.196;21.416;2023-08-20T03:13:13;100542.67;;;17.97;63.53
35307;BME280;21420;52.196;21.416;2023-08-20T03:15:40;100543.86;;;17.97;63.53
35307;BME280;21420;52.196;21.416;2023-08-20T03:18:07;100538.47;;;17.97;63.53
35307;BME280;21420;52.196;21.416;2023-08-20T03:20:34;100538.70;;;17.96;63.44
35307;BME280;21420;52.196;21.416;2023-08-20T03:23:01;100537.12;;;17.95;63.62
35307;BME280;21420;52.196;21.416;2023-08-20T03:25:28;100537.27;;;17.95;63.71
35307;BME280;21420;52.196;21.416;2023-08-20T03:27:55;100535.16;;;17.97;63.67
35307;BME280;21420;52.196;21.416;2023-08-20T03:30:22;100535.06;;;17.96;63.68
35307;BME280;21420;52.196;21.416;2023-08-20T03:32:48;100537.84;;;17.97;63.64
35307;BME280;21420;52.196;21.416;2023-08-20T03:35:15;100539.28;;;17.98;63.84
35307;BME280;21420;52.196;21.416;2023-08-20T03:37:42;100538.59;;;18.00;63.90
35307;BME280;21420;52.196;21.416;2023-08-20T03:40:11;100541.13;;;18.01;63.78
35307;BME280;21420;52.196;21.416;2023-08-20T03:42:37;100540.66;;;18.01;63.74
35307;BME280;21420;52.196;21.416;2023-08-20T03:45:05;100541.77;;;18.01;63.62
35307;BME280;21420;52.196;21.416;2023-08-20T03:47:32;100540.95;;;17.99;63.71
35307;BME280;21420;52.196;21.416;2023-08-20T03:50:00;100542.91;;;17.97;63.81
35307;BME280;21420;52.196;21.416;2023-08-20T03:52:26;100542.44;;;17.98;63.85
35307;BME280;21420;52.196;21.416;2023-08-20T03:54:53;100541.42;;;18.00;63.97
35307;BME280;21420;52.196;21.416;2023-08-20T03:57:20;100545.89;;;18.03;64.10
35307;BME280;21420;52.196;21.416;2023-08-20T03:59:47;100545.45;;;18.07;64.04
35307;BME280;21420;52.196;21.416;2023-08-20T04:02:14;100544.38;;;18.11;64.09
35307;BME280;21420;52.196;21.416;2023-08-20T04:04:41;100544.81;;;18.16;64.03
35307;BME280;21420;52.196;21.416;2023-08-20T04:07:08;100547.56;;;18.22;64.05
35307;BME280;21420;52.196;21.416;2023-08-20T04:09:34;100547.92;;;18.29;64.19
35307;BME280;21420;52.196;21.416;2023-08-20T04:12:03;100545.49;;;18.33;64.14
35307;BME280;21420;52.196;21.416;2023-08-20T04:14:30;100548.95;;;18.38;64.13
35307;BME280;21420;52.196;21.416;2023-08-20T04:16:57;100553.02;;;18.44;64.27
35307;BME280;21420;52.196;21.416;2023-08-20T04:19:24;100557.27;;;18.51;64.12
35307;BME280;21420;52.196;21.416;2023-08-20T04:21:50;100560.02;;;18.60;64.29
35307;BME280;21420;52.196;21.416;2023-08-20T04:24:17;100561.02;;;18.67;64.18
35307;BME280;21420;52.196;21.416;2023-08-20T04:26:45;100559.88;;;18.73;64.23
35307;BME280;21420;52.196;21.416;2023-08-20T04:29:12;100557.08;;;18.80;64.35
35307;BME280;21420;52.196;21.416;2023-08-20T04:31:39;100558.83;;;18.81;63.97
35307;BME280;21420;52.196;21.416;2023-08-20T04:34:08;100558.71;;;18.77;63.98
35307;BME280;21420;52.196;21.416;2023-08-20T04:36:53;100559.69;;;18.79;64.16
35307;BME280;21420;52.196;21.416;2023-08-20T04:39:19;100558.00;;;18.87;64.26
35307;BME280;21420;52.196;21.416;2023-08-20T04:41:49;100554.24;;;18.99;64.34
35307;BME280;21420;52.196;21.416;2023-08-20T04:44:17;100559.39;;;19.12;64.42
35307;BME280;21420;52.196;21.416;2023-08-20T04:46:43;100564.58;;;19.24;64.59
35307;BME280;21420;52.196;21.416;2023-08-20T04:49:11;100566.92;;;19.34;64.57
35307;BME280;21420;52.196;21.416;2023-08-20T04:51:38;100566.39;;;19.43;64.51
35307;BME280;21420;52.196;21.416;2023-08-20T04:54:05;100566.02;;;19.54;64.46
35307;BME280;21420;52.196;21.416;2023-08-20T04:56:31;100567.66;;;19.66;64.46
35307;BME280;21420;52.196;21.416;2023-08-20T04:58:58;100572.00;;;19.79;64.68
35307;BME280;21420;52.196;21.416;2023-08-20T05:01:47;100568.30;;;19.92;64.67
35307;BME280;21420;52.196;21.416;2023-08-20T05:04:16;100570.05;;;20.02;64.65
35307;BME280;21420;52.196;21.416;2023-08-20T05:06:42;100569.89;;;20.12;64.50
35307;BME280;21420;52.196;21.416;2023-08-20T05:09:09;100575.69;;;20.18;64.44
35307;BME280;21420;52.196;21.416;2023-08-20T05:11:36;100575.45;;;20.24;64.33
35307;BME280;21420;52.196;21.416;2023-08-20T05:14:03;100579.27;;;20.30;64.34
35307;BME280;21420;52.196;21.416;2023-08-20T05:16:29;100581.32;;;20.40;64.43
35307;BME280;21420;52.196;21.416;2023-08-20T05:18:56;100577.75;;;20.55;64.64
35307;BME280;21420;52.196;21.416;2023-08-20T05:21:23;100574.95;;;20.69;64.53
35307;BME280;21420;52.196;21.416;2023-08-20T05:23:52;100574.20;;;20.84;64.58
35307;BME280;21420;52.196;21.416;2023-08-20T05:26:19;100576.00;;;21.00;64.60
35307;BME280;21420;52.196;21.416;2023-08-20T05:28:46;100578.27;;;21.09;64.49
35307;BME280;21420;52.196;21.416;2023-08-20T05:31:13;100580.40;;;21.14;64.35
35307;BME280;21420;52.196;21.416;2023-08-20T05:33:40;100581.98;;;21.20;64.46
35307;BME280;21420;52.196;21.416;2023-08-20T05:36:07;100581.39;;;21.28;64.30
35307;BME280;21420;52.196;21.416;2023-08-20T05:38:33;100585.64;;;21.35;64.31
35307;BME280;21420;52.196;21.416;2023-08-20T05:41:00;100585.16;;;21.43;64.26
35307;BME280;21420;52.196;21.416;2023-08-20T05:43:27;100585.75;;;21.53;64.31
35307;BME280;21420;52.196;21.416;2023-08-20T05:45:54;100582.73;;;21.65;64.33
35307;BME280;21420;52.196;21.416;2023-08-20T05:48:21;100586.48;;;21.77;64.34
35307;BME280;21420;52.196;21.416;2023-08-20T05:50:48;100588.78;;;21.92;64.50
35307;BME280;21420;52.196;21.416;2023-08-20T05:53:15;100589.60;;;22.10;64.64
35307;BME280;21420;52.196;21.416;2023-08-20T05:55:42;100588.42;;;22.32;64.66
35307;BME280;21420;52.196;21.416;2023-08-20T05:58:09;100588.97;;;22.52;64.54
35307;BME280;21420;52.196;21.416;2023-08-20T06:00:35;100590.99;;;22.73;64.58
35307;BME280;21420;52.196;21.416;2023-08-20T06:03:02;100592.00;;;22.91;64.43
35307;BME280;21420;52.196;21.416;2023-08-20T06:05:29;100592.52;;;23.10;64.39
35307;BME280;21420;52.196;21.416;2023-08-20T06:07:56;100593.91;;;23.29;64.51
35307;BME280;21420;52.196;21.416;2023-08-20T06:10:22;100596.14;;;23.47;64.40
35307;BME280;21420;52.196;21.416;2023-08-20T06:12:49;100602.59;;;23.61;64.43
35307;BME280;21420;52.196;21.416;2023-08-20T06:15:16;100605.44;;;23.76;64.41
35307;BME280;21420;52.196;21.416;2023-08-20T06:17:42;100602.36;;;23.90;64.35
35307;BME280;21420;52.196;21.416;2023-08-20T06:20:10;100601.48;;;24.00;64.02
35307;BME280;21420;52.196;21.416;2023-08-20T06:22:38;100600.26;;;24.08;63.81
35307;BME280;21420;52.196;21.416;2023-08-20T06:25:05;100598.45;;;24.21;63.80
35307;BME280;21420;52.196;21.416;2023-08-20T06:27:32;100602.39;;;24.34;63.63
35307;BME280;21420;52.196;21.416;2023-08-20T06:30:01;100603.33;;;24.52;63.82
35307;BME280;21420;52.196;21.416;2023-08-20T06:32:27;100601.92;;;24.81;63.89
35307;BME280;21420;52.196;21.416;2023-08-20T06:34:54;100602.55;;;25.24;63.84
35307;BME280;21420;52.196;21.416;2023-08-20T06:37:21;100603.77;;;25.83;63.89
35307;BME280;21420;52.196;21.416;2023-08-20T06:39:48;100600.23;;;26.51;63.93
35307;BME280;21420;52.196;21.416;2023-08-20T06:42:14;100604.86;;;27.31;63.65
35307;BME280;21420;52.196;21.416;2023-08-20T06:44:41;100609.89;;;28.15;63.47
35307;BME280;21420;52.196;21.416;2023-08-20T06:47:08;100612.37;;;28.95;63.03
35307;BME280;21420;52.196;21.416;2023-08-20T06:49:34;100612.20;;;29.67;62.53
35307;BME280;21420;52.196;21.416;2023-08-20T06:52:01;100613.33;;;30.36;62.13
35307;BME280;21420;52.196;21.416;2023-08-20T06:54:28;100614.62;;;30.97;61.63
35307;BME280;21420;52.196;21.416;2023-08-20T06:56:55;100613.72;;;31.64;61.41
35307;BME280;21420;52.196;21.416;2023-08-20T06:59:21;100613.70;;;32.45;61.33
35307;BME280;21420;52.196;21.416;2023-08-20T07:01:49;100618.00;;;33.24;60.83
35307;BME280;21420;52.196;21.416;2023-08-20T07:04:16;100617.88;;;33.99;60.35
35307;BME280;21420;52.196;21.416;2023-08-20T07:06:42;100621.73;;;34.64;59.72
35307;BME280;21420;52.196;21.416;2023-08-20T07:09:09;100622.52;;;35.30;59.18
35307;BME280;21420;52.196;21.416;2023-08-20T07:11:36;100618.34;;;35.91;58.72
35307;BME280;21420;52.196;21.416;2023-08-20T07:14:03;100619.80;;;36.42;57.84
35307;BME280;21420;52.196;21.416;2023-08-20T07:16:30;100617.21;;;36.84;57.24
35307;BME280;21420;52.196;21.416;2023-08-20T07:18:57;100619.39;;;37.32;56.60
35307;BME280;21420;52.196;21.416;2023-08-20T07:21:25;100624.14;;;37.78;56.02
35307;BME280;21420;52.196;21.416;2023-08-20T07:23:51;100619.68;;;38.29;55.61
35307;BME280;21420;52.196;21.416;2023-08-20T07:26:18;100616.84;;;38.81;55.00
35307;BME280;21420;52.196;21.416;2023-08-20T07:28:45;100617.53;;;39.38;54.58
35307;BME280;21420;52.196;21.416;2023-08-20T07:31:25;100618.60;;;39.90;54.05
35307;BME280;21420;52.196;21.416;2023-08-20T07:33:52;100623.70;;;40.31;53.52
35307;BME280;21420;52.196;21.416;2023-08-20T07:36:20;100622.70;;;40.70;52.99
35307;BME280;21420;52.196;21.416;2023-08-20T07:38:50;100622.36;;;41.02;52.17
35307;BME280;21420;52.196;21.416;2023-08-20T07:41:17;100621.85;;;41.29;51.53
35307;BME280;21420;52.196;21.416;2023-08-20T07:43:46;100617.29;;;41.53;51.04
35307;BME280;21420;52.196;21.416;2023-08-20T07:46:14;100620.14;;;41.83;50.51
35307;BME280;21420;52.196;21.416;2023-08-20T07:48:42;100618.56;;;42.11;50.02
35307;BME280;21420;52.196;21.416;2023-08-20T07:51:10;100621.80;;;42.45;49.54
35307;BME280;21420;52.196;21.416;2023-08-20T07:53:36;100624.09;;;42.68;48.81
35307;BME280;21420;52.196;21.416;2023-08-20T07:56:03;100625.52;;;42.98;48.42
35307;BME280;21420;52.196;21.416;2023-08-20T07:58:30;100620.62;;;43.32;47.90
35307;BME280;21420;52.196;21.416;2023-08-20T08:00:57;100621.91;;;43.72;47.74
35307;BME280;21420;52.196;21.416;2023-08-20T08:03:28;100619.64;;;44.27;47.42
35307;BME280;21420;52.196;21.416;2023-08-20T08:05:55;100614.25;;;44.67;46.86
35307;BME280;21420;52.196;21.416;2023-08-20T08:08:22;100605.72;;;44.88;46.10
35307;BME280;21420;52.196;21.416;2023-08-20T08:10:49;100605.67;;;45.20;45.72
35307;BME280;21420;52.196;21.416;2023-08-20T08:13:19;100604.81;;;45.51;45.01
35307;BME280;21420;52.196;21.416;2023-08-20T08:15:47;100604.91;;;45.33;43.93
35307;BME280;21420;52.196;21.416;2023-08-20T08:18:14;100601.91;;;45.10;43.47
35307;BME280;21420;52.196;21.416;2023-08-20T08:20:41;100600.69;;;44.99;43.26
35307;BME280;21420;52.196;21.416;2023-08-20T08:23:08;100605.48;;;45.20;43.18
35307;BME280;21420;52.196;21.416;2023-08-20T08:25:34;100604.95;;;45.45;42.94
35307;BME280;21420;52.196;21.416;2023-08-20T08:28:01;100605.06;;;45.55;42.34
35307;BME280;21420;52.196;21.416;2023-08-20T08:30:28;100604.06;;;45.77;42.31
35307;BME280;21420;52.196;21.416;2023-08-20T08:32:56;100605.17;;;46.22;42.01
35307;BME280;21420;52.196;21.416;2023-08-20T08:35:22;100602.54;;;46.39;41.71
35307;BME280;21420;52.196;21.416;2023-08-20T08:37:49;100603.15;;;46.59;41.28
35307;BME280;21420;52.196;21.416;2023-08-20T08:40:16;100603.70;;;46.69;41.02
35307;BME280;21420;52.196;21.416;2023-08-20T08:42:48;100603.59;;;46.59;40.47
35307;BME280;21420;52.196;21.416;2023-08-20T08:45:18;100605.29;;;46.66;40.21
35307;BME280;21420;52.196;21.416;2023-08-20T08:47:46;100606.20;;;46.84;39.75
35307;BME280;21420;52.196;21.416;2023-08-20T08:50:14;100604.13;;;46.60;38.98
35307;BME280;21420;52.196;21.416;2023-08-20T08:52:45;100603.75;;;46.27;38.26
35307;BME280;21420;52.196;21.416;2023-08-20T08:55:13;100604.46;;;46.06;38.06
35307;BME280;21420;52.196;21.416;2023-08-20T08:57:40;100600.34;;;46.04;38.06
35307;BME280;21420;52.196;21.416;2023-08-20T09:00:07;100604.48;;;46.16;37.99
35307;BME280;21420;52.196;21.416;2023-08-20T09:02:34;100605.18;;;46.55;38.32
35307;BME280;21420;52.196;21.416;2023-08-20T09:05:00;100607.23;;;47.09;38.48
35307;BME280;21420;52.196;21.416;2023-08-20T09:07:27;100613.84;;;47.50;38.11
35307;BME280;21420;52.196;21.416;2023-08-20T09:09:58;100615.72;;;48.01;38.10
35307;BME280;21420;52.196;21.416;2023-08-20T09:12:26;100609.83;;;48.53;37.92
35307;BME280;21420;52.196;21.416;2023-08-20T09:14:54;100605.83;;;49.10;37.40
35307;BME280;21420;52.196;21.416;2023-08-20T09:17:28;100610.75;;;48.86;36.02
35307;BME280;21420;52.196;21.416;2023-08-20T09:19:55;100607.80;;;47.22;34.82
35307;BME280;21420;52.196;21.416;2023-08-20T09:22:24;100601.15;;;45.94;34.76
35307;BME280;21420;52.196;21.416;2023-08-20T09:24:56;100600.57;;;45.73;35.16
35307;BME280;21420;52.196;21.416;2023-08-20T09:27:23;100595.49;;;46.08;35.55
35307;BME280;21420;52.196;21.416;2023-08-20T09:29:52;100594.80;;;46.24;35.56
35307;BME280;21420;52.196;21.416;2023-08-20T09:34:48;100596.20;;;45.88;35.28
35307;BME280;21420;52.196;21.416;2023-08-20T09:37:17;100597.45;;;46.39;35.64
35307;BME280;21420;52.196;21.416;2023-08-20T09:39:45;100599.34;;;46.47;34.84
35307;BME280;21420;52.196;21.416;2023-08-20T09:42:12;100598.77;;;45.93;34.66
35307;BME280;21420;52.196;21.416;2023-08-20T09:44:42;100596.98;;;46.41;35.07
35307;BME280;21420;52.196;21.416;2023-08-20T09:47:10;100599.34;;;46.12;34.05
35307;BME280;21420;52.196;21.416;2023-08-20T09:49:39;100599.46;;;45.91;34.22
35307;BME280;21420;52.196;21.416;2023-08-20T09:52:09;100591.21;;;45.89;34.00
35307;BME280;21420;52.196;21.416;2023-08-20T09:54:45;100588.23;;;45.76;33.98
35307;BME280;21420;52.196;21.416;2023-08-20T09:57:38;100589.33;;;45.32;33.48
35307;BME280;21420;52.196;21.416;2023-08-20T10:00:09;100587.77;;;44.00;32.84
35307;BME280;21420;52.196;21.416;2023-08-20T10:02:43;100589.30;;;42.82;33.30
35307;BME280;21420;52.196;21.416;2023-08-20T10:05:11;100586.40;;;43.13;34.31
35307;BME280;21420;52.196;21.416;2023-08-20T10:07:38;100584.11;;;43.63;34.11
35307;BME280;21420;52.196;21.416;2023-08-20T10:10:09;100581.70;;;43.37;34.05
35307;BME280;21420;52.196;21.416;2023-08-20T10:12:40;100580.70;;;43.42;34.09
35307;BME280;21420;52.196;21.416;2023-08-20T10:15:14;100578.65;;;43.45;34.36
35307;BME280;21420;52.196;21.416;2023-08-20T10:17:44;100574.79;;;44.14;34.55
35307;BME280;21420;52.196;21.416;2023-08-20T10:20:14;100572.76;;;44.77;34.63
35307;BME280;21420;52.196;21.416;2023-08-20T10:22:43;100575.70;;;45.44;34.66
35307;BME280;21420;52.196;21.416;2023-08-20T10:25:12;100574.23;;;46.11;34.29
35307;BME280;21420;52.196;21.416;2023-08-20T10:27:48;100570.94;;;46.72;34.27
35307;BME280;21420;52.196;21.416;2023-08-20T10:30:32;100569.13;;;47.34;33.97
35307;BME280;21420;52.196;21.416;2023-08-20T10:32:59;100568.33;;;47.81;33.51
35307;BME280;21420;52.196;21.416;2023-08-20T10:38:13;100561.27;;;46.84;32.36
35307;BME280;21420;52.196;21.416;2023-08-20T10:43:30;100559.27;;;44.54;31.73
35307;BME280;21420;52.196;21.416;2023-08-20T10:46:14;100553.17;;;44.25;32.40
35307;BME280;21420;52.196;21.416;2023-08-20T10:48:43;100551.52;;;44.78;32.81
35307;BME280;21420;52.196;21.416;2023-08-20T10:56:44;100550.73;;;45.11;31.74
35307;BME280;21420;52.196;21.416;2023-08-20T11:01:43;100544.34;;;44.80;31.89
35307;BME280;21420;52.196;21.416;2023-08-20T11:04:11;100540.41;;;44.66;31.52
35307;BME280;21420;52.196;21.416;2023-08-20T11:06:38;100541.23;;;44.52;31.57
35307;BME280;21420;52.196;21.416;2023-08-20T11:09:05;100543.55;;;44.49;31.48
35307;BME280;21420;52.196;21.416;2023-08-20T11:11:32;100541.95;;;44.87;31.99
35307;BME280;21420;52.196;21.416;2023-08-20T11:14:12;100539.11;;;45.45;31.74
35307;BME280;21420;52.196;21.416;2023-08-20T11:16:43;100539.17;;;45.18;31.08
35307;BME280;21420;52.196;21.416;2023-08-20T11:19:11;100541.89;;;44.79;30.94
35307;BME280;21420;52.196;21.416;2023-08-20T11:21:40;100535.04;;;44.48;30.93
35307;BME280;21420;52.196;21.416;2023-08-20T11:24:07;100531.55;;;44.24;31.03
35307;BME280;21420;52.196;21.416;2023-08-20T11:26:35;100531.61;;;44.45;31.29
35307;BME280;21420;52.196;21.416;2023-08-20T11:29:09;100531.41;;;44.93;31.66
35307;BME280;21420;52.196;21.416;2023-08-20T11:31:39;100533.24;;;45.01;31.21
35307;BME280;21420;52.196;21.416;2023-08-20T11:34:06;100532.79;;;44.55;30.87
35307;BME280;21420;52.196;21.416;2023-08-20T11:36:34;100531.50;;;43.73;30.40
35307;BME280;21420;52.196;21.416;2023-08-20T11:39:02;100529.64;;;42.74;30.21
35307;BME280;21420;52.196;21.416;2023-08-20T11:41:29;100528.55;;;41.98;30.49
35307;BME280;21420;52.196;21.416;2023-08-20T11:43:56;100520.98;;;41.48;30.45
35307;BME280;21420;52.196;21.416;2023-08-20T11:46:24;100516.52;;;40.64;30.44
35307;BME280;21420;52.196;21.416;2023-08-20T11:51:35;100516.83;;;39.47;31.29
35307;BME280;21420;52.196;21.416;2023-08-20T11:54:12;100517.33;;;39.85;31.74
35307;BME280;21420;52.196;21.416;2023-08-20T11:56:49;100514.95;;;40.24;31.95
35307;BME280;21420;52.196;21.416;2023-08-20T11:59:19;100517.35;;;40.86;32.31
35307;BME280;21420;52.196;21.416;2023-08-20T12:01:56;100518.71;;;41.50;32.02
35307;BME280;21420;52.196;21.416;2023-08-20T12:04:25;100515.78;;;41.73;31.79
35307;BME280;21420;52.196;21.416;2023-08-20T12:07:08;100523.48;;;41.95;31.85
35307;BME280;21420;52.196;21.416;2023-08-20T12:09:35;100515.41;;;42.36;32.00
35307;BME280;21420;52.196;21.416;2023-08-20T12:12:05;100514.17;;;42.66;31.73
35307;BME280;21420;52.196;21.416;2023-08-20T12:14:33;100517.90;;;42.94;31.62
35307;BME280;21420;52.196;21.416;2023-08-20T12:17:00;100511.61;;;43.08;31.45
35307;BME280;21420;52.196;21.416;2023-08-20T12:19:27;100506.07;;;43.38;31.45
35307;BME280;21420;52.196;21.416;2023-08-20T12:21:53;100500.75;;;43.74;31.40
35307;BME280;21420;52.196;21.416;2023-08-20T12:24:20;100496.56;;;43.55;30.83
35307;BME280;21420;52.196;21.416;2023-08-20T12:26:47;100498.04;;;43.13;30.79
35307;BME280;21420;52.196;21.416;2023-08-20T12:29:14;100498.52;;;43.30;31.19
35307;BME280;21420;52.196;21.416;2023-08-20T12:31:41;100497.14;;;42.86;30.35
35307;BME280;21420;52.196;21.416;2023-08-20T12:34:08;100497.14;;;41.81;30.13
35307;BME280;21420;52.196;21.416;2023-08-20T12:36:36;100499.26;;;41.22;30.35
35307;BME280;21420;52.196;21.416;2023-08-20T12:39:03;100499.14;;;41.16;30.87
35307;BME280;21420;52.196;21.416;2023-08-20T12:41:31;100499.17;;;41.07;30.75
35307;BME280;21420;52.196;21.416;2023-08-20T12:43:58;100500.77;;;41.08;30.99
35307;BME280;21420;52.196;21.416;2023-08-20T12:46:25;100498.09;;;41.17;31.04
35307;BME280;21420;52.196;21.416;2023-08-20T12:48:52;100498.21;;;41.28;31.07
35307;BME280;21420;52.196;21.416;2023-08-20T12:51:18;100499.55;;;41.16;30.90
35307;BME280;21420;52.196;21.416;2023-08-20T12:53:45;100495.83;;;41.11;31.15
35307;BME280;21420;52.196;21.416;2023-08-20T12:56:12;100495.09;;;41.05;31.18
35307;BME280;21420;52.196;21.416;2023-08-20T12:58:39;100496.84;;;41.02;31.15
35307;BME280;21420;52.196;21.416;2023-08-20T13:01:06;100499.06;;;40.42;30.81
35307;BME280;21420;52.196;21.416;2023-08-20T13:03:34;100498.80;;;40.19;31.21
35307;BME280;21420;52.196;21.416;2023-08-20T13:06:01;100496.02;;;40.27;31.34
35307;BME280;21420;52.196;21.416;2023-08-20T13:08:28;100496.16;;;40.00;31.01
35307;BME280;21420;52.196;21.416;2023-08-20T13:10:57;100495.95;;;39.63;30.98
35307;BME280;21420;52.196;21.416;2023-08-20T13:13:24;100491.95;;;39.52;31.26